sensor_id;sensor_type;location;lat;lon;timestamp;P1;durP1;ratioP1;P2;durP2;ratioP2
6282;SDS011;3174;53.486;9.568;2023-04-29T00:01:55;8.77;;;4.90;;
6282;SDS011;3174;53.486;9.568;2023-04-29T00:04:24;7.13;;;4.37;;
6282;SDS011;3174;53.486;9.568;2023-04-29T00:06:53;8.63;;;4.23;;
6282;SDS011;3174;53.486;9.568;2023-04-29T00:09:21;8.67;;;4.10;;
6282;SDS011;3174;53.486;9.568;2023-04-29T00:11:50;7.37;;;4.43;;
6282;SDS011;3174;53.486;9.568;2023-04-29T00:14:18;9.33;;;4.40;;
6282;SDS011;3174;53.486;9.568;2023-04-29T00:16:46;5.47;;;3.90;;
6282;SDS011;3174;53.486;9.568;2023-04-29T00:19:14;6.00;;;3.70;;
6282;SDS011;3174;53.486;9.568;2023-04-29T00:21:43;6.60;;;3.90;;
6282;SDS011;3174;53.486;9.568;2023-04-29T00:24:11;5.60;;;3.90;;
6282;SDS011;3174;53.486;9.568;2023-04-29T00:26:39;5.73;;;4.13;;
6282;SDS011;3174;53.486;9.568;2023-04-29T00:29:08;5.97;;;3.70;;
6282;SDS011;3174;53.486;9.568;2023-04-29T00:31:36;9.60;;;3.97;;
6282;SDS011;3174;53.486;9.568;2023-04-29T00:34:04;6.60;;;3.70;;
6282;SDS011;3174;53.486;9.568;2023-04-29T00:36:32;6.50;;;3.83;;
6282;SDS011;3174;53.486;9.568;2023-04-29T00:39:00;6.37;;;3.77;;
6282;SDS011;3174;53.486;9.568;2023-04-29T00:41:28;8.07;;;4.10;;
6282;SDS011;3174;53.486;9.568;2023-04-29T00:43:57;6.27;;;4.00;;
6282;SDS011;3174;53.486;9.568;2023-04-29T00:46:26;6.17;;;4.00;;
6282;SDS011;3174;53.486;9.568;2023-04-29T00:48:54;9.60;;;4.10;;
6282;SDS011;3174;53.486;9.568;2023-04-29T00:51:22;7.67;;;3.93;;
6282;SDS011;3174;53.486;9.568;2023-04-29T00:53:50;7.97;;;3.57;;
6282;SDS011;3174;53.486;9.568;2023-04-29T00:56:18;9.03;;;4.33;;
6282;SDS011;3174;53.486;9.568;2023-04-29T00:58:47;5.90;;;4.40;;
6282;SDS011;3174;53.486;9.568;2023-04-29T01:01:17;6.43;;;4.30;;
6282;SDS011;3174;53.486;9.568;2023-04-29T01:03:48;6.30;;;3.93;;
6282;SDS011;3174;53.486;9.568;2023-04-29T01:06:19;7.40;;;4.57;;
6282;SDS011;3174;53.486;9.568;2023-04-29T01:09:01;7.60;;;4.00;;
6282;SDS011;3174;53.486;9.568;2023-04-29T01:11:39;9.53;;;4.33;;
6282;SDS011;3174;53.486;9.568;2023-04-29T01:14:11;5.17;;;4.03;;
6282;SDS011;3174;53.486;9.568;2023-04-29T01:16:41;7.37;;;3.63;;
6282;SDS011;3174;53.486;9.568;2023-04-29T01:19:21;6.03;;;4.13;;
6282;SDS011;3174;53.486;9.568;2023-04-29T01:22:00;8.07;;;4.23;;
6282;SDS011;3174;53.486;9.568;2023-04-29T01:24:29;6.77;;;4.20;;
6282;SDS011;3174;53.486;9.568;2023-04-29T01:26:58;6.67;;;3.83;;
6282;SDS011;3174;53.486;9.568;2023-04-29T01:29:31;5.87;;;3.83;;
6282;SDS011;3174;53.486;9.568;2023-04-29T01:32:03;8.77;;;3.87;;
6282;SDS011;3174;53.486;9.568;2023-04-29T01:34:38;6.77;;;3.30;;
6282;SDS011;3174;53.486;9.568;2023-04-29T01:37:11;7.00;;;3.63;;
6282;SDS011;3174;53.486;9.568;2023-04-29T01:39:48;6.00;;;3.90;;
6282;SDS011;3174;53.486;9.568;2023-04-29T01:42:21;6.10;;;3.97;;
6282;SDS011;3174;53.486;9.568;2023-04-29T01:44:52;6.70;;;4.00;;
6282;SDS011;3174;53.486;9.568;2023-04-29T01:47:22;7.03;;;4.77;;
6282;SDS011;3174;53.486;9.568;2023-04-29T01:49:50;8.40;;;3.87;;
6282;SDS011;3174;53.486;9.568;2023-04-29T01:52:18;6.90;;;3.93;;
6282;SDS011;3174;53.486;9.568;2023-04-29T01:54:48;7.47;;;4.00;;
6282;SDS011;3174;53.486;9.568;2023-04-29T01:57:15;10.83;;;4.90;;
6282;SDS011;3174;53.486;9.568;2023-04-29T01:59:44;5.43;;;3.73;;
6282;SDS011;3174;53.486;9.568;2023-04-29T02:02:12;5.90;;;3.73;;
6282;SDS011;3174;53.486;9.568;2023-04-29T02:04:41;6.77;;;4.60;;
6282;SDS011;3174;53.486;9.568;2023-04-29T02:07:09;7.20;;;4.03;;
6282;SDS011;3174;53.486;9.568;2023-04-29T02:09:37;8.70;;;3.93;;
6282;SDS011;3174;53.486;9.568;2023-04-29T02:12:06;5.73;;;3.40;;
6282;SDS011;3174;53.486;9.568;2023-04-29T02:14:34;5.93;;;4.37;;
6282;SDS011;3174;53.486;9.568;2023-04-29T02:17:03;5.57;;;4.10;;
6282;SDS011;3174;53.486;9.568;2023-04-29T02:19:31;5.83;;;4.00;;
6282;SDS011;3174;53.486;9.568;2023-04-29T02:21:59;9.47;;;4.73;;
6282;SDS011;3174;53.486;9.568;2023-04-29T02:24:27;7.60;;;4.40;;
6282;SDS011;3174;53.486;9.568;2023-04-29T02:26:55;6.87;;;3.53;;
6282;SDS011;3174;53.486;9.568;2023-04-29T02:29:25;5.60;;;3.87;;
6282;SDS011;3174;53.486;9.568;2023-04-29T02:31:55;6.03;;;3.97;;
6282;SDS011;3174;53.486;9.568;2023-04-29T02:34:23;7.13;;;4.70;;
6282;SDS011;3174;53.486;9.568;2023-04-29T02:36:51;6.97;;;3.90;;
6282;SDS011;3174;53.486;9.568;2023-04-29T02:39:18;7.73;;;4.47;;
6282;SDS011;3174;53.486;9.568;2023-04-29T02:41:46;6.27;;;4.10;;
6282;SDS011;3174;53.486;9.568;2023-04-29T02:44:14;7.57;;;3.77;;
6282;SDS011;3174;53.486;9.568;2023-04-29T02:46:44;7.27;;;3.80;;
6282;SDS011;3174;53.486;9.568;2023-04-29T02:49:12;6.87;;;3.90;;
6282;SDS011;3174;53.486;9.568;2023-04-29T02:51:40;6.87;;;4.30;;
6282;SDS011;3174;53.486;9.568;2023-04-29T02:54:08;6.50;;;4.33;;
6282;SDS011;3174;53.486;9.568;2023-04-29T02:56:36;5.93;;;3.97;;
6282;SDS011;3174;53.486;9.568;2023-04-29T02:59:04;8.00;;;4.57;;
6282;SDS011;3174;53.486;9.568;2023-04-29T03:01:32;7.97;;;4.67;;
6282;SDS011;3174;53.486;9.568;2023-04-29T03:04:01;8.47;;;4.67;;
6282;SDS011;3174;53.486;9.568;2023-04-29T03:06:30;7.93;;;3.90;;
6282;SDS011;3174;53.486;9.568;2023-04-29T03:08:58;5.73;;;3.83;;
6282;SDS011;3174;53.486;9.568;2023-04-29T03:11:26;6.37;;;3.77;;
6282;SDS011;3174;53.486;9.568;2023-04-29T03:13:54;8.43;;;4.37;;
6282;SDS011;3174;53.486;9.568;2023-04-29T03:16:22;7.10;;;3.43;;
6282;SDS011;3174;53.486;9.568;2023-04-29T03:18:50;8.10;;;4.47;;
6282;SDS011;3174;53.486;9.568;2023-04-29T03:21:20;8.60;;;4.57;;
6282;SDS011;3174;53.486;9.568;2023-04-29T03:23:48;9.63;;;4.53;;
6282;SDS011;3174;53.486;9.568;2023-04-29T03:26:16;8.63;;;4.70;;
6282;SDS011;3174;53.486;9.568;2023-04-29T03:28:44;8.80;;;4.50;;
6282;SDS011;3174;53.486;9.568;2023-04-29T03:31:12;5.90;;;3.57;;
6282;SDS011;3174;53.486;9.568;2023-04-29T03:33:44;13.10;;;5.57;;
6282;SDS011;3174;53.486;9.568;2023-04-29T03:36:11;7.43;;;4.33;;
6282;SDS011;3174;53.486;9.568;2023-04-29T03:38:42;9.87;;;5.90;;
6282;SDS011;3174;53.486;9.568;2023-04-29T03:41:09;12.50;;;6.17;;
6282;SDS011;3174;53.486;9.568;2023-04-29T03:43:37;9.47;;;5.83;;
6282;SDS011;3174;53.486;9.568;2023-04-29T03:46:05;8.30;;;5.27;;
6282;SDS011;3174;53.486;9.568;2023-04-29T03:48:33;6.70;;;4.53;;
6282;SDS011;3174;53.486;9.568;2023-04-29T03:51:02;6.23;;;3.90;;
6282;SDS011;3174;53.486;9.568;2023-04-29T03:53:30;7.87;;;4.73;;
6282;SDS011;3174;53.486;9.568;2023-04-29T03:56:00;9.97;;;5.57;;
6282;SDS011;3174;53.486;9.568;2023-04-29T03:58:28;9.07;;;5.33;;
6282;SDS011;3174;53.486;9.568;2023-04-29T04:00:56;9.23;;;5.23;;
6282;SDS011;3174;53.486;9.568;2023-04-29T04:03:24;7.37;;;4.20;;
6282;SDS011;3174;53.486;9.568;2023-04-29T04:05:53;10.23;;;5.00;;
6282;SDS011;3174;53.486;9.568;2023-04-29T04:08:21;8.00;;;4.73;;
6282;SDS011;3174;53.486;9.568;2023-04-29T04:10:49;11.73;;;5.47;;
6282;SDS011;3174;53.486;9.568;2023-04-29T04:13:18;9.33;;;6.07;;
6282;SDS011;3174;53.486;9.568;2023-04-29T04:15:50;10.30;;;6.50;;
6282;SDS011;3174;53.486;9.568;2023-04-29T04:18:18;10.20;;;5.93;;
6282;SDS011;3174;53.486;9.568;2023-04-29T04:20:46;9.60;;;6.30;;
6282;SDS011;3174;53.486;9.568;2023-04-29T04:23:14;8.27;;;4.70;;
6282;SDS011;3174;53.486;9.568;2023-04-29T04:25:43;11.30;;;6.40;;
6282;SDS011;3174;53.486;9.568;2023-04-29T04:28:12;11.07;;;7.03;;
6282;SDS011;3174;53.486;9.568;2023-04-29T04:30:41;11.83;;;7.03;;
6282;SDS011;3174;53.486;9.568;2023-04-29T04:33:10;13.00;;;7.23;;
6282;SDS011;3174;53.486;9.568;2023-04-29T04:35:38;8.07;;;5.00;;
6282;SDS011;3174;53.486;9.568;2023-04-29T04:38:06;7.13;;;4.43;;
6282;SDS011;3174;53.486;9.568;2023-04-29T04:40:34;8.13;;;4.97;;
6282;SDS011;3174;53.486;9.568;2023-04-29T04:43:02;8.93;;;5.37;;
6282;SDS011;3174;53.486;9.568;2023-04-29T04:45:30;9.00;;;4.70;;
6282;SDS011;3174;53.486;9.568;2023-04-29T04:47:59;9.77;;;5.33;;
6282;SDS011;3174;53.486;9.568;2023-04-29T04:50:28;11.50;;;6.37;;
6282;SDS011;3174;53.486;9.568;2023-04-29T04:52:56;9.90;;;5.70;;
6282;SDS011;3174;53.486;9.568;2023-04-29T04:55:24;12.47;;;4.73;;
6282;SDS011;3174;53.486;9.568;2023-04-29T04:57:52;8.10;;;5.23;;
6282;SDS011;3174;53.486;9.568;2023-04-29T05:00:20;11.23;;;7.40;;
6282;SDS011;3174;53.486;9.568;2023-04-29T05:02:48;6.13;;;4.43;;
6282;SDS011;3174;53.486;9.568;2023-04-29T05:05:18;11.87;;;5.43;;
6282;SDS011;3174;53.486;9.568;2023-04-29T05:07:46;9.37;;;5.93;;
6282;SDS011;3174;53.486;9.568;2023-04-29T05:10:14;10.40;;;6.17;;
6282;SDS011;3174;53.486;9.568;2023-04-29T05:12:41;7.73;;;4.80;;
6282;SDS011;3174;53.486;9.568;2023-04-29T05:15:10;7.13;;;4.33;;
6282;SDS011;3174;53.486;9.568;2023-04-29T05:17:40;11.43;;;6.40;;
6282;SDS011;3174;53.486;9.568;2023-04-29T05:20:08;11.67;;;6.40;;
6282;SDS011;3174;53.486;9.568;2023-04-29T05:22:38;12.00;;;7.00;;
6282;SDS011;3174;53.486;9.568;2023-04-29T05:25:09;13.67;;;6.20;;
6282;SDS011;3174;53.486;9.568;2023-04-29T05:27:36;10.37;;;5.60;;
6282;SDS011;3174;53.486;9.568;2023-04-29T05:30:05;8.73;;;5.63;;
6282;SDS011;3174;53.486;9.568;2023-04-29T05:32:34;8.47;;;5.13;;
6282;SDS011;3174;53.486;9.568;2023-04-29T05:35:02;9.27;;;5.97;;
6282;SDS011;3174;53.486;9.568;2023-04-29T05:37:32;8.70;;;5.33;;
6282;SDS011;3174;53.486;9.568;2023-04-29T05:40:02;10.93;;;6.30;;
6282;SDS011;3174;53.486;9.568;2023-04-29T05:42:31;9.77;;;5.33;;
6282;SDS011;3174;53.486;9.568;2023-04-29T05:44:58;12.57;;;7.03;;
6282;SDS011;3174;53.486;9.568;2023-04-29T05:47:26;11.40;;;6.60;;
6282;SDS011;3174;53.486;9.568;2023-04-29T05:49:54;8.17;;;4.53;;
6282;SDS011;3174;53.486;9.568;2023-04-29T05:52:22;9.53;;;5.03;;
6282;SDS011;3174;53.486;9.568;2023-04-29T05:54:50;5.97;;;4.37;;
6282;SDS011;3174;53.486;9.568;2023-04-29T05:57:20;8.73;;;4.77;;
6282;SDS011;3174;53.486;9.568;2023-04-29T05:59:50;9.40;;;5.67;;
6282;SDS011;3174;53.486;9.568;2023-04-29T06:02:20;8.73;;;4.90;;
6282;SDS011;3174;53.486;9.568;2023-04-29T06:04:48;11.80;;;5.90;;
6282;SDS011;3174;53.486;9.568;2023-04-29T06:07:17;9.47;;;5.60;;
6282;SDS011;3174;53.486;9.568;2023-04-29T06:09:45;9.97;;;6.07;;
6282;SDS011;3174;53.486;9.568;2023-04-29T06:12:13;9.03;;;6.23;;
6282;SDS011;3174;53.486;9.568;2023-04-29T06:14:43;9.77;;;5.87;;
6282;SDS011;3174;53.486;9.568;2023-04-29T06:17:10;7.87;;;5.00;;
6282;SDS011;3174;53.486;9.568;2023-04-29T06:19:38;11.00;;;5.93;;
6282;SDS011;3174;53.486;9.568;2023-04-29T06:22:06;9.40;;;5.17;;
6282;SDS011;3174;53.486;9.568;2023-04-29T06:24:34;8.70;;;4.97;;
6282;SDS011;3174;53.486;9.568;2023-04-29T06:27:02;10.30;;;5.77;;
6282;SDS011;3174;53.486;9.568;2023-04-29T06:29:30;10.07;;;6.17;;
6282;SDS011;3174;53.486;9.568;2023-04-29T06:32:00;10.93;;;5.30;;
6282;SDS011;3174;53.486;9.568;2023-04-29T06:34:28;9.90;;;5.63;;
6282;SDS011;3174;53.486;9.568;2023-04-29T06:36:57;9.60;;;5.90;;
6282;SDS011;3174;53.486;9.568;2023-04-29T06:39:25;9.70;;;5.40;;
6282;SDS011;3174;53.486;9.568;2023-04-29T06:41:53;11.10;;;5.83;;
6282;SDS011;3174;53.486;9.568;2023-04-29T06:44:21;10.57;;;5.47;;
6282;SDS011;3174;53.486;9.568;2023-04-29T06:46:49;11.83;;;5.90;;
6282;SDS011;3174;53.486;9.568;2023-04-29T06:49:19;10.53;;;5.47;;
6282;SDS011;3174;53.486;9.568;2023-04-29T06:51:47;11.50;;;5.60;;
6282;SDS011;3174;53.486;9.568;2023-04-29T06:54:15;12.57;;;7.10;;
6282;SDS011;3174;53.486;9.568;2023-04-29T06:56:43;10.50;;;5.77;;
6282;SDS011;3174;53.486;9.568;2023-04-29T06:59:12;7.50;;;5.07;;
6282;SDS011;3174;53.486;9.568;2023-04-29T07:02:03;11.60;;;6.40;;
6282;SDS011;3174;53.486;9.568;2023-04-29T07:04:32;8.93;;;5.10;;
6282;SDS011;3174;53.486;9.568;2023-04-29T07:07:03;8.80;;;5.27;;
6282;SDS011;3174;53.486;9.568;2023-04-29T07:09:31;11.80;;;6.10;;
6282;SDS011;3174;53.486;9.568;2023-04-29T07:12:02;13.23;;;6.10;;
6282;SDS011;3174;53.486;9.568;2023-04-29T07:14:30;12.60;;;6.13;;
6282;SDS011;3174;53.486;9.568;2023-04-29T07:16:58;12.53;;;5.50;;
6282;SDS011;3174;53.486;9.568;2023-04-29T07:19:26;10.83;;;6.47;;
6282;SDS011;3174;53.486;9.568;2023-04-29T07:21:55;9.40;;;6.37;;
6282;SDS011;3174;53.486;9.568;2023-04-29T07:24:23;12.50;;;6.27;;
6282;SDS011;3174;53.486;9.568;2023-04-29T07:26:51;10.07;;;5.93;;
6282;SDS011;3174;53.486;9.568;2023-04-29T07:29:19;10.37;;;5.53;;
6282;SDS011;3174;53.486;9.568;2023-04-29T07:31:47;9.87;;;5.73;;
6282;SDS011;3174;53.486;9.568;2023-04-29T07:34:15;9.97;;;5.77;;
6282;SDS011;3174;53.486;9.568;2023-04-29T07:36:49;10.47;;;5.20;;
6282;SDS011;3174;53.486;9.568;2023-04-29T07:39:28;9.87;;;5.17;;
6282;SDS011;3174;53.486;9.568;2023-04-29T07:42:02;11.60;;;5.27;;
6282;SDS011;3174;53.486;9.568;2023-04-29T07:44:30;11.63;;;5.53;;
6282;SDS011;3174;53.486;9.568;2023-04-29T07:46:58;8.93;;;4.73;;
6282;SDS011;3174;53.486;9.568;2023-04-29T07:49:26;9.10;;;5.40;;
6282;SDS011;3174;53.486;9.568;2023-04-29T07:51:54;11.10;;;4.63;;
6282;SDS011;3174;53.486;9.568;2023-04-29T07:54:23;8.17;;;4.67;;
6282;SDS011;3174;53.486;9.568;2023-04-29T07:56:53;6.30;;;3.97;;
6282;SDS011;3174;53.486;9.568;2023-04-29T07:59:20;10.10;;;4.20;;
6282;SDS011;3174;53.486;9.568;2023-04-29T08:01:48;8.50;;;4.70;;
6282;SDS011;3174;53.486;9.568;2023-04-29T08:04:17;6.93;;;4.23;;
6282;SDS011;3174;53.486;9.568;2023-04-29T08:06:46;6.37;;;4.23;;
6282;SDS011;3174;53.486;9.568;2023-04-29T08:09:14;5.67;;;4.10;;
6282;SDS011;3174;53.486;9.568;2023-04-29T08:11:43;7.33;;;4.00;;
6282;SDS011;3174;53.486;9.568;2023-04-29T08:14:11;6.33;;;3.67;;
6282;SDS011;3174;53.486;9.568;2023-04-29T08:16:39;11.63;;;4.17;;
6282;SDS011;3174;53.486;9.568;2023-04-29T08:19:07;7.47;;;4.20;;
6282;SDS011;3174;53.486;9.568;2023-04-29T08:21:35;6.77;;;3.80;;
6282;SDS011;3174;53.486;9.568;2023-04-29T08:24:03;8.03;;;4.73;;
6282;SDS011;3174;53.486;9.568;2023-04-29T08:26:32;6.73;;;3.80;;
6282;SDS011;3174;53.486;9.568;2023-04-29T08:29:01;7.27;;;4.33;;
6282;SDS011;3174;53.486;9.568;2023-04-29T08:31:29;7.63;;;4.57;;
6282;SDS011;3174;53.486;9.568;2023-04-29T08:33:57;6.30;;;3.87;;
6282;SDS011;3174;53.486;9.568;2023-04-29T08:36:25;7.50;;;4.33;;
6282;SDS011;3174;53.486;9.568;2023-04-29T08:38:54;7.90;;;3.93;;
6282;SDS011;3174;53.486;9.568;2023-04-29T08:41:21;6.57;;;3.83;;
6282;SDS011;3174;53.486;9.568;2023-04-29T08:43:50;7.23;;;4.47;;
6282;SDS011;3174;53.486;9.568;2023-04-29T08:46:19;6.90;;;3.87;;
6282;SDS011;3174;53.486;9.568;2023-04-29T08:48:48;7.70;;;3.53;;
6282;SDS011;3174;53.486;9.568;2023-04-29T08:51:16;6.77;;;4.60;;
6282;SDS011;3174;53.486;9.568;2023-04-29T08:53:45;8.43;;;3.73;;
6282;SDS011;3174;53.486;9.568;2023-04-29T08:56:14;6.73;;;3.60;;
6282;SDS011;3174;53.486;9.568;2023-04-29T08:58:45;5.60;;;3.70;;
6282;SDS011;3174;53.486;9.568;2023-04-29T09:01:14;5.00;;;3.07;;
6282;SDS011;3174;53.486;9.568;2023-04-29T09:03:45;7.40;;;4.03;;
6282;SDS011;3174;53.486;9.568;2023-04-29T09:06:18;7.60;;;3.90;;
6282;SDS011;3174;53.486;9.568;2023-04-29T09:08:46;7.23;;;4.10;;
6282;SDS011;3174;53.486;9.568;2023-04-29T09:11:14;5.80;;;3.47;;
6282;SDS011;3174;53.486;9.568;2023-04-29T09:13:43;7.30;;;4.30;;
6282;SDS011;3174;53.486;9.568;2023-04-29T09:16:11;8.50;;;3.67;;
6282;SDS011;3174;53.486;9.568;2023-04-29T09:18:43;6.87;;;4.53;;
6282;SDS011;3174;53.486;9.568;2023-04-29T09:21:14;7.43;;;3.90;;
6282;SDS011;3174;53.486;9.568;2023-04-29T09:23:47;6.80;;;3.50;;
6282;SDS011;3174;53.486;9.568;2023-04-29T09:26:16;6.67;;;3.93;;
6282;SDS011;3174;53.486;9.568;2023-04-29T09:28:44;7.93;;;4.57;;
6282;SDS011;3174;53.486;9.568;2023-04-29T09:31:13;6.33;;;4.10;;
6282;SDS011;3174;53.486;9.568;2023-04-29T09:33:52;7.60;;;3.93;;
6282;SDS011;3174;53.486;9.568;2023-04-29T09:36:36;7.43;;;4.23;;
6282;SDS011;3174;53.486;9.568;2023-04-29T09:39:06;5.00;;;3.30;;
6282;SDS011;3174;53.486;9.568;2023-04-29T09:41:38;7.40;;;4.00;;
6282;SDS011;3174;53.486;9.568;2023-04-29T09:44:07;9.13;;;4.67;;
6282;SDS011;3174;53.486;9.568;2023-04-29T09:46:36;6.20;;;3.60;;
6282;SDS011;3174;53.486;9.568;2023-04-29T09:49:20;7.43;;;4.30;;
6282;SDS011;3174;53.486;9.568;2023-04-29T09:51:53;5.07;;;3.80;;
6282;SDS011;3174;53.486;9.568;2023-04-29T09:54:23;6.97;;;4.37;;
6282;SDS011;3174;53.486;9.568;2023-04-29T09:56:54;5.47;;;3.20;;
6282;SDS011;3174;53.486;9.568;2023-04-29T09:59:23;8.60;;;4.10;;
6282;SDS011;3174;53.486;9.568;2023-04-29T10:01:52;5.93;;;3.50;;
6282;SDS011;3174;53.486;9.568;2023-04-29T10:04:23;7.90;;;3.73;;
6282;SDS011;3174;53.486;9.568;2023-04-29T10:06:53;10.20;;;4.47;;
6282;SDS011;3174;53.486;9.568;2023-04-29T10:09:22;7.63;;;3.73;;
6282;SDS011;3174;53.486;9.568;2023-04-29T10:11:51;6.53;;;3.53;;
6282;SDS011;3174;53.486;9.568;2023-04-29T10:14:20;6.53;;;3.53;;
6282;SDS011;3174;53.486;9.568;2023-04-29T10:16:53;6.80;;;3.73;;
6282;SDS011;3174;53.486;9.568;2023-04-29T10:19:32;7.57;;;3.17;;
6282;SDS011;3174;53.486;9.568;2023-04-29T10:22:04;7.37;;;3.83;;
6282;SDS011;3174;53.486;9.568;2023-04-29T10:24:36;5.20;;;3.27;;
6282;SDS011;3174;53.486;9.568;2023-04-29T10:27:05;7.70;;;4.40;;
6282;SDS011;3174;53.486;9.568;2023-04-29T10:29:34;5.07;;;3.63;;
6282;SDS011;3174;53.486;9.568;2023-04-29T10:32:04;7.17;;;3.90;;
6282;SDS011;3174;53.486;9.568;2023-04-29T10:34:37;7.93;;;4.00;;
6282;SDS011;3174;53.486;9.568;2023-04-29T10:37:06;5.37;;;3.20;;
6282;SDS011;3174;53.486;9.568;2023-04-29T10:39:38;8.20;;;4.37;;
6282;SDS011;3174;53.486;9.568;2023-04-29T10:42:14;5.97;;;4.23;;
6282;SDS011;3174;53.486;9.568;2023-04-29T10:48:11;7.33;;;4.27;;
6282;SDS011;3174;53.486;9.568;2023-04-29T10:50:58;6.03;;;3.80;;
6282;SDS011;3174;53.486;9.568;2023-04-29T10:53:30;8.63;;;4.23;;
6282;SDS011;3174;53.486;9.568;2023-04-29T10:56:03;9.83;;;4.50;;
6282;SDS011;3174;53.486;9.568;2023-04-29T10:58:33;8.00;;;4.40;;
6282;SDS011;3174;53.486;9.568;2023-04-29T11:01:05;8.33;;;4.50;;
6282;SDS011;3174;53.486;9.568;2023-04-29T11:03:52;8.10;;;4.17;;
6282;SDS011;3174;53.486;9.568;2023-04-29T11:06:38;4.93;;;3.73;;
6282;SDS011;3174;53.486;9.568;2023-04-29T11:09:08;5.17;;;3.63;;
6282;SDS011;3174;53.486;9.568;2023-04-29T11:11:42;6.57;;;3.90;;
6282;SDS011;3174;53.486;9.568;2023-04-29T11:14:14;6.67;;;3.87;;
6282;SDS011;3174;53.486;9.568;2023-04-29T11:16:49;8.63;;;3.50;;
6282;SDS011;3174;53.486;9.568;2023-04-29T11:19:18;8.73;;;4.63;;
6282;SDS011;3174;53.486;9.568;2023-04-29T11:21:52;5.80;;;3.37;;
6282;SDS011;3174;53.486;9.568;2023-04-29T11:24:32;6.00;;;4.47;;
6282;SDS011;3174;53.486;9.568;2023-04-29T11:27:01;5.57;;;3.90;;
6282;SDS011;3174;53.486;9.568;2023-04-29T11:29:31;6.87;;;4.17;;
6282;SDS011;3174;53.486;9.568;2023-04-29T11:32:00;6.67;;;3.80;;
6282;SDS011;3174;53.486;9.568;2023-04-29T11:34:29;7.63;;;3.30;;
6282;SDS011;3174;53.486;9.568;2023-04-29T11:36:58;8.60;;;3.90;;
6282;SDS011;3174;53.486;9.568;2023-04-29T11:39:26;6.73;;;3.93;;
6282;SDS011;3174;53.486;9.568;2023-04-29T11:42:01;4.87;;;3.23;;
6282;SDS011;3174;53.486;9.568;2023-04-29T11:44:32;6.17;;;3.03;;
6282;SDS011;3174;53.486;9.568;2023-04-29T11:47:01;5.00;;;2.90;;
6282;SDS011;3174;53.486;9.568;2023-04-29T11:49:30;3.70;;;2.50;;
6282;SDS011;3174;53.486;9.568;2023-04-29T11:52:00;3.67;;;2.37;;
6282;SDS011;3174;53.486;9.568;2023-04-29T11:54:28;8.67;;;2.47;;
6282;SDS011;3174;53.486;9.568;2023-04-29T11:56:57;5.10;;;2.60;;
6282;SDS011;3174;53.486;9.568;2023-04-29T11:59:26;5.17;;;2.60;;
6282;SDS011;3174;53.486;9.568;2023-04-29T12:01:54;4.70;;;2.40;;
6282;SDS011;3174;53.486;9.568;2023-04-29T12:04:22;5.63;;;2.20;;
6282;SDS011;3174;53.486;9.568;2023-04-29T12:06:51;5.43;;;2.30;;
6282;SDS011;3174;53.486;9.568;2023-04-29T12:09:20;4.83;;;2.90;;
6282;SDS011;3174;53.486;9.568;2023-04-29T12:11:48;5.03;;;2.13;;
6282;SDS011;3174;53.486;9.568;2023-04-29T12:14:16;5.17;;;2.33;;
6282;SDS011;3174;53.486;9.568;2023-04-29T12:16:45;3.83;;;2.77;;
6282;SDS011;3174;53.486;9.568;2023-04-29T12:19:13;3.47;;;2.43;;
6282;SDS011;3174;53.486;9.568;2023-04-29T12:21:48;3.60;;;2.47;;
6282;SDS011;3174;53.486;9.568;2023-04-29T12:24:20;3.63;;;2.17;;
6282;SDS011;3174;53.486;9.568;2023-04-29T12:26:48;3.90;;;2.60;;
6282;SDS011;3174;53.486;9.568;2023-04-29T12:29:16;4.77;;;2.50;;
6282;SDS011;3174;53.486;9.568;2023-04-29T12:31:48;4.33;;;2.63;;
6282;SDS011;3174;53.486;9.568;2023-04-29T12:34:16;4.20;;;3.00;;
6282;SDS011;3174;53.486;9.568;2023-04-29T12:36:44;6.13;;;3.20;;
6282;SDS011;3174;53.486;9.568;2023-04-29T12:39:12;5.57;;;3.27;;
6282;SDS011;3174;53.486;9.568;2023-04-29T12:41:42;4.83;;;2.97;;
6282;SDS011;3174;53.486;9.568;2023-04-29T12:44:10;4.60;;;3.00;;
6282;SDS011;3174;53.486;9.568;2023-04-29T12:46:39;5.37;;;3.00;;
6282;SDS011;3174;53.486;9.568;2023-04-29T12:49:07;4.20;;;2.83;;
6282;SDS011;3174;53.486;9.568;2023-04-29T12:51:35;3.40;;;2.70;;
6282;SDS011;3174;53.486;9.568;2023-04-29T12:54:03;3.90;;;2.30;;
6282;SDS011;3174;53.486;9.568;2023-04-29T12:56:32;6.03;;;3.13;;
6282;SDS011;3174;53.486;9.568;2023-04-29T12:59:05;4.97;;;2.33;;
6282;SDS011;3174;53.486;9.568;2023-04-29T13:01:33;2.33;;;1.60;;
6282;SDS011;3174;53.486;9.568;2023-04-29T13:04:02;2.87;;;1.83;;
6282;SDS011;3174;53.486;9.568;2023-04-29T13:06:32;2.77;;;1.57;;
6282;SDS011;3174;53.486;9.568;2023-04-29T13:09:00;2.77;;;1.87;;
6282;SDS011;3174;53.486;9.568;2023-04-29T13:11:28;2.70;;;1.60;;
6282;SDS011;3174;53.486;9.568;2023-04-29T13:13:59;4.33;;;1.23;;
6282;SDS011;3174;53.486;9.568;2023-04-29T13:16:29;4.57;;;1.73;;
6282;SDS011;3174;53.486;9.568;2023-04-29T13:18:57;2.77;;;1.80;;
6282;SDS011;3174;53.486;9.568;2023-04-29T13:21:45;1.73;;;1.30;;
6282;SDS011;3174;53.486;9.568;2023-04-29T13:24:14;2.77;;;1.40;;
6282;SDS011;3174;53.486;9.568;2023-04-29T13:26:43;3.07;;;1.40;;
6282;SDS011;3174;53.486;9.568;2023-04-29T13:29:16;2.63;;;1.60;;
6282;SDS011;3174;53.486;9.568;2023-04-29T13:31:45;2.07;;;1.70;;
6282;SDS011;3174;53.486;9.568;2023-04-29T13:34:13;4.97;;;1.50;;
6282;SDS011;3174;53.486;9.568;2023-04-29T13:36:41;2.20;;;1.50;;
6282;SDS011;3174;53.486;9.568;2023-04-29T13:39:09;1.60;;;1.40;;
6282;SDS011;3174;53.486;9.568;2023-04-29T13:41:37;3.83;;;1.50;;
6282;SDS011;3174;53.486;9.568;2023-04-29T13:44:10;3.07;;;1.67;;
6282;SDS011;3174;53.486;9.568;2023-04-29T13:46:41;3.93;;;1.50;;
6282;SDS011;3174;53.486;9.568;2023-04-29T13:49:12;1.50;;;1.10;;
6282;SDS011;3174;53.486;9.568;2023-04-29T13:51:43;2.27;;;1.43;;
6282;SDS011;3174;53.486;9.568;2023-04-29T13:54:31;2.23;;;1.30;;
6282;SDS011;3174;53.486;9.568;2023-04-29T13:57:02;1.70;;;1.43;;
6282;SDS011;3174;53.486;9.568;2023-04-29T13:59:50;1.83;;;1.30;;
6282;SDS011;3174;53.486;9.568;2023-04-29T14:02:20;1.60;;;1.50;;
6282;SDS011;3174;53.486;9.568;2023-04-29T14:04:52;2.30;;;1.40;;
6282;SDS011;3174;53.486;9.568;2023-04-29T14:07:21;6.93;;;1.57;;
6282;SDS011;3174;53.486;9.568;2023-04-29T14:09:49;3.47;;;1.67;;
6282;SDS011;3174;53.486;9.568;2023-04-29T14:12:17;2.47;;;1.67;;
6282;SDS011;3174;53.486;9.568;2023-04-29T14:14:45;1.47;;;1.27;;
6282;SDS011;3174;53.486;9.568;2023-04-29T14:17:13;2.43;;;1.60;;
6282;SDS011;3174;53.486;9.568;2023-04-29T14:19:41;2.43;;;1.93;;
6282;SDS011;3174;53.486;9.568;2023-04-29T14:22:10;3.17;;;1.50;;
6282;SDS011;3174;53.486;9.568;2023-04-29T14:24:38;2.23;;;1.40;;
6282;SDS011;3174;53.486;9.568;2023-04-29T14:27:06;1.83;;;1.47;;
6282;SDS011;3174;53.486;9.568;2023-04-29T14:29:34;2.20;;;1.30;;
6282;SDS011;3174;53.486;9.568;2023-04-29T14:32:02;1.73;;;1.20;;
6282;SDS011;3174;53.486;9.568;2023-04-29T14:34:32;3.23;;;1.40;;
6282;SDS011;3174;53.486;9.568;2023-04-29T14:37:00;1.10;;;1.00;;
6282;SDS011;3174;53.486;9.568;2023-04-29T14:39:29;1.80;;;1.47;;
6282;SDS011;3174;53.486;9.568;2023-04-29T14:41:57;1.00;;;0.90;;
6282;SDS011;3174;53.486;9.568;2023-04-29T14:44:28;3.10;;;1.30;;
6282;SDS011;3174;53.486;9.568;2023-04-29T14:46:56;2.07;;;1.00;;
6282;SDS011;3174;53.486;9.568;2023-04-29T14:49:24;1.97;;;1.13;;
6282;SDS011;3174;53.486;9.568;2023-04-29T14:51:54;4.30;;;1.87;;
6282;SDS011;3174;53.486;9.568;2023-04-29T14:54:22;2.37;;;1.30;;
6282;SDS011;3174;53.486;9.568;2023-04-29T14:56:53;1.30;;;1.20;;
6282;SDS011;3174;53.486;9.568;2023-04-29T14:59:21;2.97;;;1.00;;
6282;SDS011;3174;53.486;9.568;2023-04-29T15:01:49;4.53;;;1.30;;
6282;SDS011;3174;53.486;9.568;2023-04-29T15:04:17;4.37;;;0.90;;
6282;SDS011;3174;53.486;9.568;2023-04-29T15:06:45;1.57;;;1.27;;
6282;SDS011;3174;53.486;9.568;2023-04-29T15:09:13;1.70;;;0.97;;
6282;SDS011;3174;53.486;9.568;2023-04-29T15:11:41;1.20;;;1.03;;
6282;SDS011;3174;53.486;9.568;2023-04-29T15:14:10;1.83;;;1.37;;
6282;SDS011;3174;53.486;9.568;2023-04-29T15:16:38;2.87;;;1.03;;
6282;SDS011;3174;53.486;9.568;2023-04-29T15:19:07;4.03;;;1.30;;
6282;SDS011;3174;53.486;9.568;2023-04-29T15:21:34;2.23;;;1.10;;
6282;SDS011;3174;53.486;9.568;2023-04-29T15:24:02;3.53;;;1.10;;
6282;SDS011;3174;53.486;9.568;2023-04-29T15:26:32;1.47;;;1.00;;
6282;SDS011;3174;53.486;9.568;2023-04-29T15:29:00;2.70;;;1.00;;
6282;SDS011;3174;53.486;9.568;2023-04-29T15:31:30;1.63;;;1.20;;